Bavaria

Go HERE for most recent data if this page is not up to date.

Jump to table bottom
Date Time Temp F RH % AVG Wind Max Wind Wind Dir 24 Snow Depth
*11/30/22 14 13.9 83 13 19 W - 251 3.4 143.3
*11/30/22 13 12.4 84 12 20 SW - 218 3.5 143.3
*11/30/22 12 10.8 85 10 21 SW - 228 3.3 42.4
*11/30/22 11 9.5 84 10 18 SW - 245 3.3 143.3
*11/30/22 10 8.4 83 7 15 W - 265 3.7 42.8
*11/30/22 09 8.4 84 7 19 SW - 230 3.6 42.6
*11/30/22 08 7.5 83 7 16 SW - 214 0.0 40.0
*11/30/22 07 7.8 82 7 19 W - 278 0.7 143.3
*11/30/22 06 7.7 80 8 16 SW - 225 0.2 37.1
*11/30/22 05 5.8 81 9 16 W - 288 0.2 37.5
*11/30/22 04 5.2 70 9 15 S - 198 0.3 37.9
*11/30/22 03 2.4 73 9 17 S - 196 0.3 37.7
*11/30/22 02 1.0 73 7 16 SW - 245 0.3 37.6
*11/30/22 01 -0.2 79 5 15 W - 275 0.3 37.9
*11/30/22 00 -0.7 78 9 18 SW - 210 0.3 37.8
*11/29/22 23 -0.7 76 7 18 S - 186 0.3 37.6
*11/29/22 22 -1.5 75 7 14 SW - 241 0.3 37.5
*11/29/22 21 -1.5 77 3 8 SW - 228 0.2 37.6
*11/29/22 20 -0.8 74 8 15 SW - 232 0.2 37.7
*11/29/22 19 -1.2 78 11 19 W - 251 0.2 37.8
*11/29/22 18 -1.6 79 10 17 W - 278 0.2 37.8
*11/29/22 17 -1.7 79 10 18 SW - 231 0.2 37.8
*11/29/22 16 -1.6 79 12 19 SW - 219 0.1 37.8
*11/29/22 15 -1.3 77 14 22 SW - 242 0.1 37.8
*11/29/22 14 -1.0 75 14 21 SW - 228 0.0 37.7
*11/29/22 13 -1.2 79 14 23 SW - 225 -0.0 37.6
*11/29/22 12 -1.3 78 13 19 W - 257 -0.0 37.5
*11/29/22 11 -1.0 77 8 15 SW - 243 -0.0 37.8
*11/29/22 10 -1.1 71 10 16 SW - 243 -0.0 37.6
*11/29/22 09 -2.5 63 8 14 W - 286 -0.0 38.2
*11/29/22 08 -3.8 59 5 18 NW - 303 0.0 38.3
*11/29/22 07 -3.5 61 4 10 SW - 209 0.1 38.2
*11/29/22 06 -2.6 67 9 20 S - 177 0.0 38.1
*11/29/22 05 -2.7 79 11 18 NW - 293 0.0 38.2
*11/29/22 04 -2.3 79 10 13 W - 289 0.0 38.3
*11/29/22 03 -0.4 76 9 12 W - 278 0.2 38.5
*11/29/22 02 -1.2 68 9 12 W - 269 0.2 38.8
*11/29/22 01 -1.5 64 9 11 NW - 294 0.2 38.8
*11/29/22 00 -1.0 53 6 9 NW - 309 0.2 38.9
.